Time;durP1;ratioP1;P1;durP2;ratioP2;P2;SDS_P1;SDS_P2;PMS_P1;PMS_P2;Temp;Humidity;BMP_temperature;BMP_pressure;BME280_temperature;BME280_humidity;BME280_pressure;Samples;Min_cycle;Max_cycle;Signal;HPM_P1;HPM_P2
2021/01/29 00:00:10;;;;;;;49.10;22.58;;;;;;;0.82;90.36;98149.06;5116476;28;20050;-76
2021/01/29 00:02:40;;;;;;;48.03;20.88;;;;;;;0.81;90.05;98152.44;5116477;28;20055;-76
2021/01/29 00:05:11;;;;;;;42.72;20.00;;;;;;;0.79;90.53;98151.56;5116474;28;20089;-76
2021/01/29 00:07:43;;;;;;;49.33;23.05;;;;;;;0.81;90.18;98146.56;5116398;27;20115;-76
2021/01/29 00:10:13;;;;;;;43.83;21.05;;;;;;;0.51;90.26;98115.22;5116381;27;20043;-75
2021/01/29 00:12:41;;;;;;;48.72;22.98;;;;;;;0.81;90.35;98142.38;5115329;28;20043;-75
2021/01/29 00:15:12;;;;;;;45.57;20.60;;;;;;;0.82;90.26;98148.22;5116109;28;20408;-75
2021/01/29 00:17:40;;;;;;;45.28;20.23;;;;;;;0.55;90.58;98118.63;5115740;28;20330;-76
2021/01/29 00:20:11;;;;;;;50.72;20.75;;;;;;;0.78;90.66;98149.88;5116413;28;20035;-76
2021/01/29 00:22:39;;;;;;;45.72;20.55;;;;;;;0.74;90.44;98155.69;5116057;28;20051;-76
2021/01/29 00:25:10;;;;;;;45.05;20.83;;;;;;;0.76;90.33;98159.06;5116062;28;20031;-75
2021/01/29 00:27:38;;;;;;;45.20;20.63;;;;;;;0.76;90.55;98161.56;5116335;28;20074;-76
2021/01/29 00:30:07;;;;;;;44.97;20.85;;;;;;;0.76;90.44;98169.09;5116205;28;20161;-75
2021/01/29 00:32:35;;;;;;;55.67;23.55;;;;;;;0.77;90.12;98168.25;5116108;28;20513;-76
2021/01/29 00:35:03;;;;;;;49.53;22.20;;;;;;;0.80;90.62;98170.81;5115688;28;20067;-75
2021/01/29 00:37:31;;;;;;;47.13;21.58;;;;;;;0.78;90.48;98162.44;5115777;28;20093;-75
2021/01/29 00:39:59;;;;;;;47.15;20.10;;;;;;;0.64;90.70;98148.84;5115764;28;20477;-74
2021/01/29 00:42:28;;;;;;;45.70;21.45;;;;;;;-0.34;90.38;97990.31;5115565;28;20136;-76
2021/01/29 00:44:55;;;;;;;48.28;20.80;;;;;;;0.76;90.27;98166.59;5115657;28;20468;-76
2021/01/29 00:47:23;;;;;;;42.28;20.52;;;;;;;0.68;90.14;98160.59;5115656;28;20046;-76
2021/01/29 00:49:51;;;;;;;46.75;22.33;;;;;;;0.75;90.90;98171.56;5114547;28;20460;-76
2021/01/29 00:52:19;;;;;;;50.13;22.98;;;;;;;0.74;90.38;98179.94;5115500;28;20042;-76
2021/01/29 00:54:47;;;;;;;49.05;22.20;;;;;;;0.76;90.46;98181.66;5116081;28;20543;-76
2021/01/29 00:57:15;;;;;;;52.10;22.80;;;;;;;0.74;90.60;98170.75;5114115;28;20048;-76
2021/01/29 00:59:53;;;;;;;51.15;22.05;;;;;;;0.56;90.52;98155.41;5114497;28;20047;-75
2021/01/29 01:02:28;;;;;;;50.38;21.08;;;;;;;0.74;90.64;98198.38;5114143;28;20055;-76
2021/01/29 01:04:57;;;;;;;48.75;22.52;;;;;;;0.76;90.47;98193.34;5115291;28;20048;-75
2021/01/29 01:07:25;;;;;;;53.47;24.08;;;;;;;0.78;90.26;98191.69;5114916;28;20075;-76
2021/01/29 01:09:56;;;;;;;51.80;22.73;;;;;;;0.71;90.33;98175.72;5115213;28;20058;-75
2021/01/29 01:12:51;;;;;;;47.70;20.40;;;;;;;0.54;90.59;98139.50;5115070;28;20120;-74
2021/01/29 01:15:33;;;;;;;51.10;22.45;;;;;;;0.75;90.68;98176.59;5113866;28;20122;-75
2021/01/29 01:18:06;;;;;;;53.67;22.38;;;;;;;0.83;90.58;98182.56;5115119;28;20127;-75
2021/01/29 01:20:38;;;;;;;50.05;21.77;;;;;;;0.82;90.49;98184.22;5114955;28;20097;-75
2021/01/29 01:23:07;;;;;;;49.78;22.48;;;;;;;0.83;90.51;98195.97;5114009;28;20053;-76
2021/01/29 01:25:42;;;;;;;50.92;22.20;;;;;;;0.82;90.66;98208.47;5113795;28;20143;-76
2021/01/29 01:28:22;;;;;;;49.67;22.27;;;;;;;0.81;90.68;98196.78;5113952;28;20097;-75
2021/01/29 01:31:00;;;;;;;48.50;22.27;;;;;;;0.81;90.56;98207.66;5113182;28;20048;-75
2021/01/29 01:33:30;;;;;;;43.60;21.10;;;;;;;0.80;90.48;98213.50;5113981;28;20139;-75
2021/01/29 01:36:13;;;;;;;47.15;21.58;;;;;;;0.73;90.22;98214.22;5114133;28;20074;-75
2021/01/29 01:38:46;;;;;;;55.28;21.85;;;;;;;0.74;90.21;98215.09;5113456;28;20127;-75
2021/01/29 01:41:15;;;;;;;54.17;22.38;;;;;;;0.78;90.74;98202.59;5097014;28;20036;-75
2021/01/29 01:43:53;;;;;;;50.83;22.58;;;;;;;0.72;90.40;98199.97;5113406;28;20168;-75
2021/01/29 01:46:27;;;;;;;48.05;21.63;;;;;;;0.78;90.27;98222.66;5114619;28;20120;-75
2021/01/29 01:49:16;;;;;;;54.67;22.77;;;;;;;0.66;90.44;98195.75;5114344;28;20044;-75
2021/01/29 01:51:53;;;;;;;53.25;22.33;;;;;;;0.72;90.41;98194.97;5114450;28;20058;-74
2021/01/29 01:54:32;;;;;;;57.35;22.60;;;;;;;0.44;90.51;98145.22;5113436;28;20039;-75
2021/01/29 01:57:02;;;;;;;47.17;20.45;;;;;;;0.72;90.49;98192.44;5114415;28;20047;-75
2021/01/29 01:59:39;;;;;;;47.80;21.95;;;;;;;0.76;90.54;98200.88;5114403;28;20123;-75
2021/01/29 02:02:14;;;;;;;46.08;20.42;;;;;;;0.72;90.20;98199.97;5114668;28;20477;-75
2021/01/29 02:04:46;;;;;;;51.63;21.88;;;;;;;0.68;90.21;98210.81;5114321;28;20508;-74
2021/01/29 02:07:37;;;;;;;48.38;20.95;;;;;;;0.68;90.72;98205.78;5113273;28;20105;-75
2021/01/29 02:10:09;;;;;;;46.40;21.45;;;;;;;0.69;90.58;98202.47;5114229;28;20054;-74
2021/01/29 02:12:39;;;;;;;49.38;20.50;;;;;;;0.67;90.12;98209.97;5096662;28;20059;-74
2021/01/29 02:15:18;;;;;;;49.90;20.90;;;;;;;0.68;90.12;98218.34;5112936;28;20050;-74
2021/01/29 02:17:59;;;;;;;44.83;21.45;;;;;;;0.44;90.47;98186.22;5114100;28;20046;-74
2021/01/29 02:20:44;;;;;;;45.97;21.40;;;;;;;0.71;90.63;98215.03;5114095;28;20054;-74
2021/01/29 02:23:32;;;;;;;51.95;21.20;;;;;;;0.68;90.77;98225.88;5112921;28;20051;-74
2021/01/29 02:26:41;;;;;;;47.30;20.83;;;;;;;0.66;90.57;98217.47;5112799;28;20044;-74
2021/01/29 02:29:30;;;;;;;49.22;21.73;;;;;;;0.68;90.51;98216.69;5112878;28;20104;-74
2021/01/29 02:32:21;;;;;;;52.83;22.13;;;;;;;0.74;90.68;98205.03;5112643;28;20093;-74
2021/01/29 02:35:20;;;;;;;47.10;19.58;;;;;;;0.73;90.97;98204.19;5112723;28;20044;-74
2021/01/29 02:38:06;;;;;;;48.03;20.98;;;;;;;0.69;90.30;98212.50;5113964;28;20084;-74
2021/01/29 02:40:54;;;;;;;45.83;21.10;;;;;;;0.72;90.53;98204.19;5069066;28;20044;-74
2021/01/29 02:43:44;;;;;;;53.00;21.73;;;;;;;0.78;90.58;98204.25;5116925;28;20481;-74
2021/01/29 02:46:41;;;;;;;46.38;19.48;;;;;;;0.70;90.45;98198.31;5103984;28;20493;-74
2021/01/29 02:49:21;;;;;;;51.33;21.05;;;;;;;0.66;90.93;98190.72;5118013;28;20485;-74
2021/01/29 02:51:59;;;;;;;48.75;20.50;;;;;;;0.72;90.27;98187.44;5116823;28;20062;-74
2021/01/29 02:54:39;;;;;;;49.38;19.73;;;;;;;0.67;90.91;98199.09;5117720;28;20050;-74
2021/01/29 02:57:21;;;;;;;46.80;19.77;;;;;;;0.70;90.79;98201.63;5083573;28;20052;-74
2021/01/29 03:00:15;;;;;;;41.92;18.90;;;;;;;0.63;90.63;98207.38;5117697;28;20085;-74
2021/01/29 03:02:53;;;;;;;44.30;19.27;;;;;;;0.63;90.77;98203.22;5117742;28;20051;-75
2021/01/29 03:05:35;;;;;;;45.47;19.73;;;;;;;0.66;90.66;98198.25;5116420;28;20481;-75
2021/01/29 03:08:07;;;;;;;45.28;19.83;;;;;;;0.65;90.44;98188.16;5117584;28;20512;-75
2021/01/29 03:10:45;;;;;;;47.58;20.05;;;;;;;0.69;90.34;98182.38;5117505;28;20051;-75
2021/01/29 03:13:25;;;;;;;45.70;21.60;;;;;;;0.67;90.69;98179.03;5117635;28;20063;-75
2021/01/29 03:15:59;;;;;;;45.60;18.98;;;;;;;0.64;90.68;98171.44;5117320;28;20295;-75
2021/01/29 03:18:35;;;;;;;51.47;21.90;;;;;;;0.60;90.29;98169.72;5117474;28;20063;-75
2021/01/29 03:21:12;;;;;;;46.97;20.73;;;;;;;0.59;90.61;98165.50;5117350;28;20446;-74
2021/01/29 03:23:49;;;;;;;46.83;20.67;;;;;;;0.61;90.79;98172.25;5117376;28;20082;-75
2021/01/29 03:26:24;;;;;;;51.53;21.85;;;;;;;0.67;90.45;98168.97;5117303;28;20039;-75
2021/01/29 03:29:01;;;;;;;46.70;20.33;;;;;;;0.64;90.78;98184.00;5117150;28;20108;-76
2021/01/29 03:31:36;;;;;;;47.63;20.42;;;;;;;0.55;90.39;98168.81;5117181;27;20043;-75
2021/01/29 03:34:12;;;;;;;46.00;19.80;;;;;;;0.63;90.45;98179.78;5116943;28;20075;-75
2021/01/29 03:36:50;;;;;;;42.83;19.85;;;;;;;0.59;90.67;98178.06;5117094;28;20047;-75
2021/01/29 03:39:25;;;;;;;48.78;21.02;;;;;;;0.50;90.82;98182.94;5116891;28;20052;-75
2021/01/29 03:42:05;;;;;;;47.70;20.35;;;;;;;0.52;90.55;98194.69;5116962;28;20529;-75
2021/01/29 03:44:45;;;;;;;36.45;15.45;;;;;;;0.54;90.45;98192.19;5117005;28;20043;-75
2021/01/29 03:47:25;;;;;;;49.67;20.98;;;;;;;0.54;90.87;98182.16;5116811;28;20531;-76
2021/01/29 03:50:07;;;;;;;49.22;20.33;;;;;;;0.52;90.42;98189.69;5116880;28;20455;-76
2021/01/29 03:52:48;;;;;;;45.90;20.15;;;;;;;0.42;90.78;98192.03;5115913;28;20054;-75
2021/01/29 03:55:31;;;;;;;47.53;21.20;;;;;;;0.38;90.65;98190.31;5116568;28;20047;-75
2021/01/29 03:58:08;;;;;;;57.92;22.30;;;;;;;0.46;90.91;98203.78;5116653;28;20051;-75
2021/01/29 04:00:47;;;;;;;47.13;21.85;;;;;;;0.55;90.80;98211.47;5116844;28;20044;-76
2021/01/29 04:03:28;;;;;;;50.13;21.25;;;;;;;0.56;90.42;98208.13;5116924;27;20067;-76
2021/01/29 04:06:08;;;;;;;53.08;22.45;;;;;;;0.54;90.62;98212.28;5116508;28;20039;-76
2021/01/29 04:08:44;;;;;;;51.20;22.83;;;;;;;0.24;90.76;98164.16;5116142;27;20101;-76
2021/01/29 04:11:21;;;;;;;52.95;22.05;;;;;;;0.42;90.43;98197.88;5116437;28;20051;-75
2021/01/29 04:14:11;;;;;;;54.92;22.00;;;;;;;0.47;90.78;98195.44;5115078;28;20048;-76
2021/01/29 04:16:45;;;;;;;51.97;23.10;;;;;;;0.57;90.52;98222.38;5115155;28;20047;-75
2021/01/29 04:19:17;;;;;;;56.13;23.77;;;;;;;0.51;90.71;98209.72;5116204;28;20063;-77
2021/01/29 04:21:52;;;;;;;57.00;23.58;;;;;;;0.61;91.25;98224.09;5116210;28;20412;-76
2021/01/29 04:24:25;;;;;;;59.97;23.85;;;;;;;0.58;90.69;98219.03;5116171;28;20489;-76
2021/01/29 04:26:58;;;;;;;54.60;24.38;;;;;;;0.54;90.74;98212.28;5116089;28;20058;-76
2021/01/29 04:29:30;;;;;;;56.47;23.10;;;;;;;0.53;90.51;98215.59;5116383;28;20131;-75
2021/01/29 04:32:05;;;;;;;51.15;23.55;;;;;;;0.56;90.94;98221.53;5115913;27;20048;-76
2021/01/29 04:34:35;;;;;;;48.08;22.30;;;;;;;0.55;90.65;98217.31;5116027;28;20485;-76
2021/01/29 04:37:18;;;;;;;54.05;22.60;;;;;;;0.50;90.98;98203.88;5115892;28;20455;-76
2021/01/29 04:39:49;;;;;;;51.22;23.40;;;;;;;0.57;90.53;98209.81;5115880;28;20071;-76
2021/01/29 04:42:31;;;;;;;59.78;22.75;;;;;;;0.46;90.56;98182.06;5115794;28;20056;-76
2021/01/29 04:45:14;;;;;;;47.35;21.77;;;;;;;0.33;90.68;98159.28;5115975;28;20090;-76
2021/01/29 04:48:04;;;;;;;50.15;21.90;;;;;;;0.51;90.67;98207.22;5115602;28;20117;-76
2021/01/29 04:50:41;;;;;;;49.28;22.83;;;;;;;0.58;90.96;98208.97;5114444;28;20117;-76
2021/01/29 04:53:32;;;;;;;56.22;23.98;;;;;;;0.38;90.50;98166.06;5115558;28;20074;-77
2021/01/29 04:56:18;;;;;;;63.10;25.67;;;;;;;0.62;90.49;98195.69;5115373;27;20071;-76
2021/01/29 04:59:08;;;;;;;54.50;23.48;;;;;;;0.65;90.84;98195.69;5114208;28;20092;-76
2021/01/29 05:02:19;;;;;;;65.07;25.27;;;;;;;0.68;90.79;98178.19;5115051;28;20122;-76
2021/01/29 05:05:07;;;;;;;56.80;23.88;;;;;;;0.65;90.79;98180.63;5115353;28;20314;-76
2021/01/29 05:07:44;;;;;;;53.23;23.73;;;;;;;0.66;90.75;98183.19;5052375;28;20139;-75
2021/01/29 05:10:46;;;;;;;49.90;20.45;;;;;;;0.67;90.78;98194.09;5052397;28;20041;-75
2021/01/29 05:13:23;;;;;;;57.00;23.55;;;;;;;0.65;90.99;98205.75;5052682;28;20048;-76
2021/01/29 05:16:08;;;;;;;67.90;24.85;;;;;;;0.70;90.76;98193.28;5035175;28;20059;-75
2021/01/29 05:19:05;;;;;;;59.80;26.50;;;;;;;0.71;90.78;98175.72;5019730;28;20091;-76
2021/01/29 05:21:50;;;;;;;54.10;23.88;;;;;;;0.75;90.38;98162.38;5052341;28;20072;-75
2021/01/29 05:24:40;;;;;;;63.85;25.88;;;;;;;0.73;90.74;98171.56;5029076;28;20426;-75
2021/01/29 05:27:22;;;;;;;62.20;27.73;;;;;;;0.72;90.89;98151.47;5052171;28;20442;-76
2021/01/29 05:30:03;;;;;;;59.55;28.02;;;;;;;0.71;91.01;98145.59;5052174;28;20123;-75
2021/01/29 05:32:41;;;;;;;56.72;25.27;;;;;;;0.68;90.91;98135.50;5052366;28;20045;-75
2021/01/29 05:35:22;;;;;;;66.22;28.05;;;;;;;0.68;90.63;98141.38;5051981;28;20048;-75
2021/01/29 05:38:01;;;;;;;61.35;24.52;;;;;;;0.67;90.74;98121.28;5052105;28;20064;-75
2021/01/29 05:40:47;;;;;;;60.00;24.95;;;;;;;0.68;90.51;98115.44;5035589;28;20080;-75
2021/01/29 05:43:36;;;;;;;56.92;23.95;;;;;;;0.61;90.85;98119.53;5031222;28;20069;-74
2021/01/29 05:46:11;;;;;;;58.63;23.38;;;;;;;0.59;90.97;98117.81;5114828;27;20143;-74
2021/01/29 05:48:51;;;;;;;58.70;24.90;;;;;;;0.56;90.77;98105.22;5114454;28;20100;-75
2021/01/29 05:51:28;;;;;;;59.33;24.02;;;;;;;-0.69;90.94;97916.31;5114449;28;20054;-74
2021/01/29 05:54:23;;;;;;;63.10;26.40;;;;;;;0.51;90.77;98111.84;5113432;28;20047;-75
2021/01/29 05:57:10;;;;;;;55.00;24.40;;;;;;;0.48;91.18;98127.72;5114344;28;20393;-74
2021/01/29 05:59:52;;;;;;;67.25;25.25;;;;;;;0.49;90.70;98118.53;5114275;28;20043;-75
2021/01/29 06:02:31;;;;;;;63.97;26.92;;;;;;;0.46;90.76;98136.03;5114346;28;20051;-75
2021/01/29 06:05:14;;;;;;;69.57;30.02;;;;;;;0.30;90.58;98131.63;5112989;28;20047;-74
2021/01/29 06:07:55;;;;;;;60.28;26.13;;;;;;;0.38;90.80;98160.19;5113894;28;20060;-74
2021/01/29 06:10:33;;;;;;;59.97;24.13;;;;;;;0.42;90.98;98171.94;5114374;28;20485;-74
2021/01/29 06:13:20;;;;;;;54.53;21.42;;;;;;;0.38;90.58;98182.78;5113140;28;20051;-75
2021/01/29 06:16:08;;;;;;;54.53;23.27;;;;;;;0.35;90.85;98191.09;5114001;28;20048;-75
2021/01/29 06:19:02;;;;;;;64.30;27.35;;;;;;;0.24;91.16;98199.28;5113899;28;20047;-75
2021/01/29 06:21:43;;;;;;;75.90;27.83;;;;;;;0.33;90.82;98201.94;5113990;28;20120;-76
2021/01/29 06:24:30;;;;;;;72.75;29.75;;;;;;;0.39;90.64;98192.81;5113948;28;20050;-75
2021/01/29 06:27:08;;;;;;;73.95;28.42;;;;;;;0.45;90.63;98184.56;5112788;28;20119;-76
2021/01/29 06:29:54;;;;;;;71.85;29.15;;;;;;;0.48;91.08;98187.09;5113883;28;20527;-75
2021/01/29 06:32:41;;;;;;;73.03;27.90;;;;;;;0.49;90.90;98182.09;5112739;28;20066;-75
2021/01/29 06:35:15;;;;;;;67.25;26.13;;;;;;;0.51;90.74;98187.97;5113837;28;20130;-75
2021/01/29 06:37:59;;;;;;;63.88;27.33;;;;;;;0.51;91.13;98182.13;5113864;28;20477;-76
2021/01/29 06:40:33;;;;;;;71.38;26.73;;;;;;;0.47;90.87;98177.88;5112686;28;20081;-74
2021/01/29 06:43:21;;;;;;;66.07;28.00;;;;;;;0.45;90.83;98172.00;5112615;28;20051;-75
2021/01/29 06:46:08;;;;;;;72.47;29.52;;;;;;;0.62;90.98;98175.59;5113745;28;20046;-75
2021/01/29 06:48:54;;;;;;;93.85;35.88;;;;;;;0.70;90.82;98179.03;5114044;28;20063;-75
2021/01/29 06:51:48;;;;;;;81.95;35.58;;;;;;;0.67;90.88;98168.97;5106846;28;20126;-73
2021/01/29 06:54:34;;;;;;;83.95;33.83;;;;;;;0.73;90.83;98154.00;5112701;28;20112;-75
2021/01/29 06:57:08;;;;;;;91.10;35.65;;;;;;;0.72;91.01;98142.25;5113632;28;20048;-75
2021/01/29 06:59:46;;;;;;;86.43;34.90;;;;;;;0.71;90.95;98150.63;5113752;28;20561;-74
2021/01/29 07:02:18;;;;;;;;;;;;;;;0.77;90.95;98160.72;5112902;28;20089;-74
2021/01/29 07:05:09;;;;;;;78.53;31.80;;;;;;;0.83;90.73;98155.78;5113515;28;19920;-75
2021/01/29 07:07:56;;;;;;;75.57;31.55;;;;;;;0.63;90.52;98122.06;5112096;28;20055;-75
2021/01/29 07:10:42;;;;;;;81.90;32.55;;;;;;;0.86;90.52;98160.88;5113579;28;20050;-75
2021/01/29 07:13:16;;;;;;;81.90;32.90;;;;;;;0.89;90.82;98160.88;5113480;28;20066;-75
2021/01/29 07:16:01;;;;;;;80.85;32.72;;;;;;;0.97;90.57;98144.25;5113552;28;20389;-75
2021/01/29 07:18:53;;;;;;;76.55;31.40;;;;;;;0.99;90.61;98145.09;5113863;28;20404;-75
2021/01/29 07:21:34;;;;;;;75.63;31.17;;;;;;;1.03;90.39;98126.72;5113498;28;20051;-75
2021/01/29 07:24:15;;;;;;;65.75;28.60;;;;;;;1.12;90.93;98128.53;5113491;28;20059;-74
2021/01/29 07:26:59;;;;;;;75.30;28.80;;;;;;;1.13;90.10;98136.06;5113666;28;20059;-74
2021/01/29 07:29:38;;;;;;;67.80;28.83;;;;;;;1.08;90.54;98145.22;5116279;28;20118;-75
2021/01/29 07:32:31;;;;;;;68.28;27.45;;;;;;;1.13;90.25;98151.13;5117165;28;20051;-75
2021/01/29 07:35:07;;;;;;;62.20;26.15;;;;;;;1.20;90.70;98137.81;5115672;28;20517;-74
2021/01/29 07:38:06;;;;;;;71.43;28.92;;;;;;;1.39;90.39;98133.00;5117090;28;20039;-74
2021/01/29 07:40:40;;;;;;;59.90;25.70;;;;;;;1.47;90.44;98141.44;5116930;28;20109;-74
2021/01/29 07:43:17;;;;;;;63.72;24.95;;;;;;;1.35;90.33;98140.50;5116906;28;20550;-74
2021/01/29 07:45:56;;;;;;;59.28;26.08;;;;;;;1.30;90.24;98147.16;5116894;28;20047;-73
2021/01/29 07:48:41;;;;;;;70.22;30.75;;;;;;;0.97;89.67;98154.28;5116882;28;20078;-73
2021/01/29 07:51:16;;;;;;;75.13;30.70;;;;;;;0.84;89.41;98170.03;5116751;28;20052;-73
2021/01/29 07:54:04;;;;;;;70.10;29.25;;;;;;;0.90;89.59;98182.66;5116959;28;20497;-73
2021/01/29 07:56:50;;;;;;;64.43;27.75;;;;;;;0.91;89.59;98189.34;5116503;28;20044;-74
2021/01/29 07:59:34;;;;;;;69.47;29.02;;;;;;;0.80;89.53;98164.94;5116611;28;20048;-73
2021/01/29 08:02:13;;;;;;;68.15;28.63;;;;;;;1.01;89.98;98181.13;5116789;28;20071;-73
2021/01/29 08:04:57;;;;;;;59.08;25.70;;;;;;;1.05;89.74;98187.91;5115306;28;20051;-74
2021/01/29 08:07:35;;;;;;;56.75;25.83;;;;;;;0.92;89.45;98165.94;5105969;27;20044;-74
2021/01/29 08:10:08;;;;;;;57.45;23.88;;;;;;;1.00;89.90;98196.19;5095968;28;20402;-74
2021/01/29 08:12:50;;;;;;;53.70;24.30;;;;;;;1.03;89.20;98193.72;5095986;28;20089;-74
2021/01/29 08:15:29;;;;;;;63.92;24.60;;;;;;;1.09;89.55;98174.53;5102842;28;20047;-73
2021/01/29 08:18:15;;;;;;;54.72;23.88;;;;;;;1.18;89.31;98169.63;5116541;28;20062;-73
2021/01/29 08:21:01;;;;;;;52.83;22.35;;;;;;;1.28;89.96;98171.41;5116213;28;20047;-73
2021/01/29 08:23:41;;;;;;;56.08;21.63;;;;;;;1.34;89.38;98161.41;5116142;28;20051;-73
2021/01/29 08:26:31;;;;;;;51.58;22.45;;;;;;;1.41;89.67;98169.03;5116079;28;20056;-73
2021/01/29 08:29:25;;;;;;;52.97;23.73;;;;;;;1.46;89.16;98169.94;5115990;28;20051;-72
2021/01/29 08:32:23;;;;;;;51.75;22.63;;;;;;;1.47;89.13;98167.44;5116123;28;20058;-72
2021/01/29 08:35:14;;;;;;;55.97;22.70;;;;;;;1.51;88.69;98169.16;5114644;28;20055;-71
2021/01/29 08:37:47;;;;;;;51.63;21.52;;;;;;;1.66;89.14;98173.47;5115898;28;20054;-73
2021/01/29 08:40:23;;;;;;;47.05;20.25;;;;;;;1.78;88.64;98168.56;5115429;28;20050;-73
2021/01/29 08:43:15;;;;;;;45.30;20.52;;;;;;;1.81;88.48;98168.59;5115760;28;20397;-72
2021/01/29 08:45:56;;;;;;;40.50;18.70;;;;;;;1.74;89.10;98171.88;5115676;28;20060;-72
2021/01/29 08:48:32;;;;;;;40.00;17.98;;;;;;;1.64;88.48;98165.94;5107622;28;20040;-72
2021/01/29 08:51:10;;;;;;;43.85;18.52;;;;;;;1.67;88.70;98162.59;5095206;28;20040;-73
2021/01/29 08:54:01;;;;;;;38.58;15.68;;;;;;;1.72;88.67;98168.53;5093972;28;20059;-73
2021/01/29 08:56:39;;;;;;;41.30;15.18;;;;;;;1.69;88.54;98171.00;5094967;28;20071;-73
2021/01/29 08:59:10;;;;;;;37.58;16.02;;;;;;;1.58;88.59;98165.88;5096934;28;20036;-73
2021/01/29 09:01:47;;;;;;;44.30;18.75;;;;;;;1.48;88.36;98153.19;5094103;28;20123;-73
2021/01/29 09:04:24;;;;;;;34.15;14.73;;;;;;;1.40;88.22;98160.66;5102415;28;20485;-74
2021/01/29 09:06:58;;;;;;;46.72;16.40;;;;;;;1.40;89.03;98154.78;5101575;28;20093;-73
2021/01/29 09:09:30;;;;;;;36.30;13.80;;;;;;;1.49;88.80;98162.44;5115061;28;20051;-73
2021/01/29 09:12:01;;;;;;;38.30;14.40;;;;;;;1.53;88.75;98171.69;5099839;28;20101;-75
2021/01/29 09:14:35;;;;;;;33.38;13.50;;;;;;;1.51;88.65;98168.31;5105326;28;20404;-75
2021/01/29 09:17:09;;;;;;;40.75;14.00;;;;;;;1.50;88.38;98167.47;5097887;28;20044;-76
2021/01/29 09:19:39;;;;;;;38.97;13.13;;;;;;;1.51;88.78;98168.31;5094258;28;20554;-75
2021/01/29 09:22:13;;;;;;;;;;;;;;;1.46;89.30;98164.91;5060376;28;20054;-75
2021/01/29 09:24:47;;;;;;;38.08;12.45;;;;;;;1.46;89.17;98157.38;5094526;28;19968;-76
2021/01/29 09:27:26;;;;;;;33.03;12.93;;;;;;;1.48;88.75;98148.16;5111713;28;20044;-76
2021/01/29 09:29:59;;;;;;;45.10;14.82;;;;;;;1.40;89.22;98129.66;5114610;28;20497;-76
2021/01/29 09:32:33;;;;;;;39.10;13.90;;;;;;;1.56;88.83;98154.13;5104100;28;20122;-76
2021/01/29 09:35:03;;;;;;;41.25;14.88;;;;;;;1.04;88.82;98070.66;5113636;28;20047;-75
2021/01/29 09:37:35;;;;;;;42.85;14.13;;;;;;;1.50;88.96;98151.53;5114708;28;20143;-76
2021/01/29 09:40:08;;;;;;;40.70;13.52;;;;;;;1.32;89.54;98117.84;5115724;28;20067;-78
2021/01/29 09:42:53;;;;;;;38.80;14.25;;;;;;;1.51;88.88;98153.22;5120896;28;20044;-79
2021/01/29 09:45:26;;;;;;;38.88;12.77;;;;;;;1.64;88.71;98139.94;5116037;28;20449;-75
2021/01/29 09:47:59;;;;;;;40.17;13.65;;;;;;;1.51;89.11;98102.97;5114517;28;20043;-74
2021/01/29 09:50:32;;;;;;;42.95;13.70;;;;;;;1.91;88.90;98135.16;5113963;28;20063;-74
2021/01/29 09:53:18;;;;;;;36.92;13.65;;;;;;;1.93;89.04;98126.81;5114409;28;20048;-73
2021/01/29 09:55:56;;;;;;;41.17;14.20;;;;;;;1.58;89.36;98067.84;5114665;28;20065;-73
2021/01/29 09:58:34;;;;;;;36.28;12.70;;;;;;;1.89;88.97;98127.63;5099905;28;20149;-73
2021/01/29 10:01:07;;;;;;;33.78;13.80;;;;;;;1.95;88.69;98121.78;5099900;28;20096;-76
2021/01/29 10:03:51;;;;;;;33.13;13.27;;;;;;;1.87;88.55;98088.19;5093992;28;20591;-74
2021/01/29 10:06:24;;;;;;;36.47;12.73;;;;;;;2.16;88.18;98101.81;5093984;28;20127;-76
2021/01/29 10:08:56;;;;;;;36.38;13.07;;;;;;;2.15;88.14;98087.56;5093785;28;20052;-74
2021/01/29 10:11:28;;;;;;;34.38;13.35;;;;;;;2.30;88.64;98085.16;5093793;28;20073;-73
2021/01/29 10:14:03;;;;;;;34.60;13.52;;;;;;;2.38;88.09;98093.56;5093793;28;20048;-73
2021/01/29 10:16:37;;;;;;;38.28;13.05;;;;;;;2.26;88.38;98090.97;5093586;28;20052;-73
2021/01/29 10:19:13;;;;;;;30.30;12.23;;;;;;;2.12;88.51;98079.13;5093735;28;20516;-75
2021/01/29 10:22:03;;;;;;;29.00;12.07;;;;;;;2.18;88.27;98075.00;5093816;28;20056;-75
2021/01/29 10:24:38;;;;;;;35.92;12.60;;;;;;;2.36;87.96;98079.28;5094060;28;20386;-74
2021/01/29 10:27:15;;;;;;;30.58;13.57;;;;;;;2.48;88.57;98064.25;5100177;28;20055;-73
2021/01/29 10:29:48;;;;;;;28.30;11.43;;;;;;;2.46;87.60;98056.69;5101580;28;20131;-73
2021/01/29 10:32:24;;;;;;;32.22;11.52;;;;;;;2.32;87.95;98042.34;5102122;28;20467;-73
2021/01/29 10:35:00;;;;;;;29.10;13.35;;;;;;;2.50;87.93;98060.91;5109707;28;20093;-72
2021/01/29 10:37:34;;;;;;;29.63;12.55;;;;;;;2.48;87.20;98056.69;5114050;28;20043;-71
2021/01/29 10:40:17;;;;;;;32.83;13.32;;;;;;;2.53;87.16;98043.31;5113341;28;20043;-72
2021/01/29 10:42:56;;;;;;;31.88;13.02;;;;;;;2.13;87.09;97986.06;5114003;28;20056;-74
2021/01/29 10:45:34;;;;;;;30.88;13.05;;;;;;;2.30;87.38;97999.59;5114105;28;20123;-73
2021/01/29 10:48:14;;;;;;;35.20;13.90;;;;;;;2.46;87.88;98010.53;5112536;28;20092;-73
2021/01/29 10:50:53;;;;;;;33.15;13.30;;;;;;;2.54;87.55;98008.91;5114237;28;20097;-72
2021/01/29 10:53:24;;;;;;;33.22;13.38;;;;;;;2.59;86.93;98008.06;5112926;28;20059;-71
2021/01/29 10:55:59;;;;;;;32.63;15.32;;;;;;;2.60;87.87;98004.72;5104273;28;20048;-72
2021/01/29 10:58:38;;;;;;;31.65;12.73;;;;;;;2.57;87.23;97999.66;5102349;28;20066;-73
2021/01/29 11:01:11;;;;;;;30.75;12.82;;;;;;;2.57;87.76;97999.66;5093240;28;20149;-72
2021/01/29 11:03:51;;;;;;;33.53;14.13;;;;;;;2.55;87.16;97995.47;5096758;28;20074;-72
2021/01/29 11:06:23;;;;;;;34.47;13.98;;;;;;;2.56;87.34;97987.09;5097368;28;20043;-72
2021/01/29 11:08:56;;;;;;;34.70;13.45;;;;;;;2.51;86.46;97979.53;5096953;28;20076;-72
2021/01/29 11:11:28;;;;;;;35.42;14.15;;;;;;;2.48;86.94;97979.50;5097169;28;20040;-72
2021/01/29 11:14:03;;;;;;;34.63;14.30;;;;;;;2.45;87.04;97974.44;5097086;28;20079;-72
2021/01/29 11:16:42;;;;;;;34.85;14.43;;;;;;;2.43;87.39;97966.06;5110325;28;20047;-72
2021/01/29 11:19:19;;;;;;;34.47;14.32;;;;;;;2.24;87.10;97949.22;5117432;28;20050;-72
2021/01/29 11:22:02;;;;;;;32.10;14.50;;;;;;;2.25;87.01;97950.91;5116953;28;20100;-72
2021/01/29 11:24:40;;;;;;;35.28;14.13;;;;;;;2.24;86.53;97956.75;5097486;28;20405;-72
2021/01/29 11:27:24;;;;;;;27.90;11.27;;;;;;;2.17;87.07;97952.53;5117245;28;20043;-73
2021/01/29 11:29:59;;;;;;;34.53;13.98;;;;;;;2.17;87.32;97950.03;5117104;28;20043;-73
2021/01/29 11:32:33;;;;;;;34.92;14.10;;;;;;;1.64;87.08;97863.44;5098316;28;20127;-72
2021/01/29 11:35:20;;;;;;;32.80;14.05;;;;;;;2.12;87.20;97946.66;5114668;28;20051;-72
2021/01/29 11:38:09;;;;;;;37.95;14.60;;;;;;;2.12;87.72;97939.09;5117066;28;20043;-72
2021/01/29 11:40:50;;;;;;;40.95;14.10;;;;;;;2.11;86.89;97932.41;5106179;28;20036;-73
2021/01/29 11:43:32;;;;;;;37.78;14.18;;;;;;;2.12;87.68;97931.53;5107636;28;20047;-72
2021/01/29 11:46:10;;;;;;;35.42;12.90;;;;;;;2.10;87.25;97923.16;5098742;28;20052;-72
2021/01/29 11:48:47;;;;;;;38.67;14.50;;;;;;;2.12;87.77;97929.03;5096394;28;20127;-72
2021/01/29 11:51:25;;;;;;;39.30;15.18;;;;;;;2.16;87.23;97924.88;5096402;28;20052;-72
2021/01/29 11:54:02;;;;;;;34.20;14.38;;;;;;;2.17;87.79;97912.28;5095021;28;20512;-72
2021/01/29 11:56:37;;;;;;;41.05;15.05;;;;;;;2.18;87.43;97913.13;5095034;28;20040;-72
2021/01/29 11:59:10;;;;;;;36.85;13.65;;;;;;;2.20;87.64;97907.28;5096833;28;20113;-72
2021/01/29 12:01:43;;;;;;;40.28;17.02;;;;;;;2.23;87.86;97908.97;5094846;28;20040;-72
2021/01/29 12:04:22;;;;;;;52.58;23.23;;;;;;;2.28;87.55;97900.56;5096119;28;20133;-72
2021/01/29 12:07:01;;;;;;;89.28;35.55;;;;;;;2.27;88.13;97900.56;5096062;28;20040;-72
2021/01/29 12:09:42;;;;;;;75.82;28.83;;;;;;;2.29;87.38;97907.28;5095881;28;20044;-73
2021/01/29 12:12:19;;;;;;;37.08;15.15;;;;;;;2.31;87.30;97922.38;5095813;28;20055;-72
2021/01/29 12:15:01;;;;;;;27.33;10.68;;;;;;;2.31;88.27;97930.78;5095222;28;20078;-72
2021/01/29 12:17:32;;;;;;;37.05;14.38;;;;;;;2.26;87.88;97927.41;5094679;28;20058;-73
2021/01/29 12:20:06;;;;;;;30.92;12.77;;;;;;;2.08;87.29;97929.88;5095774;28;20044;-73